Terminal Aerodrome Forecast
Issued by NWS

Home | Current Version | Previous Version | Graphics & Text | Print | Product List | Glossary On
Versions: 1 2 3 4 5 6 7 8 9 10 11 12 13 14 15 16
682
FTUS43 KICT 242342
TAFSLN
TAF
KSLN 242342Z 2500/2524 VRB05KT P6SM VCSH SCT050 BKN150
     FM250600 24007KT P6SM VCSH SCT015 BKN040
      TEMPO 2506/2508 TSRA BKN015CB
     FM251000 33015G25KT P6SM SCT015 BKN250
     FM251500 34018G28KT P6SM SKC=

USA.gov is the U.S. government's official web portal to all federal, state and local government web resources and services.